createdAt,value
2022-08-03T00:00:50.898Z,16.68
2022-08-03T00:01:50.918Z,16.65
2022-08-03T00:02:51.151Z,16.61
2022-08-03T00:03:50.873Z,16.59
2022-08-03T00:04:50.857Z,16.56
2022-08-03T00:06:03.670Z,16.64
2022-08-03T00:06:51.873Z,16.57
2022-08-03T00:07:50.843Z,16.56
2022-08-03T00:08:50.819Z,16.51
2022-08-03T00:09:50.808Z,16.46
2022-08-03T00:10:50.815Z,16.51
2022-08-03T00:11:50.824Z,16.46
2022-08-03T00:12:50.786Z,16.49
2022-08-03T00:13:50.768Z,16.35
2022-08-03T00:14:51.770Z,16.34
2022-08-03T00:15:50.806Z,16.35
2022-08-03T00:16:50.766Z,16.38
2022-08-03T00:17:53.368Z,16.49
2022-08-03T00:18:50.739Z,16.51
2022-08-03T00:19:50.734Z,16.38
2022-08-03T00:20:50.773Z,16.46
2022-08-03T00:22:24.946Z,16.46
2022-08-03T00:22:51.756Z,16.47
2022-08-03T00:23:51.312Z,16.35
2022-08-03T00:24:50.691Z,16.38
2022-08-03T00:25:50.679Z,16.49
2022-08-03T00:26:50.700Z,16.38
2022-08-03T00:27:50.905Z,16.38
2022-08-03T00:28:50.670Z,16.39
2022-08-03T00:29:59.609Z,16.34
2022-08-03T00:30:51.673Z,16.36
2022-08-03T00:31:52.251Z,16.39
2022-08-03T00:32:51.625Z,16.38
2022-08-03T00:33:59.482Z,16.39
2022-08-03T00:34:57.138Z,16.43
2022-08-03T00:35:51.603Z,16.34
2022-08-03T00:36:50.610Z,16.34
2022-08-03T00:37:50.593Z,16.28
2022-08-03T00:38:50.581Z,16.25
2022-08-03T00:39:50.551Z,16.16
2022-08-03T00:40:51.559Z,16.08
2022-08-03T00:41:50.577Z,16.10
2022-08-03T00:42:50.536Z,16.01
2022-08-03T00:43:50.533Z,16.06
2022-08-03T00:44:50.524Z,16.06
2022-08-03T00:45:50.510Z,16.01
2022-08-03T00:46:50.547Z,16.00
2022-08-03T00:47:50.516Z,16.05
2022-08-03T00:48:50.492Z,16.08
2022-08-03T00:49:50.492Z,16.12
2022-08-03T00:50:50.471Z,16.09
2022-08-03T00:51:50.499Z,16.01
2022-08-03T00:52:50.453Z,16.06
2022-08-03T00:53:50.463Z,16.01
2022-08-03T00:54:50.433Z,16.06
2022-08-03T00:55:50.450Z,15.97
2022-08-03T00:56:59.269Z,16.02
2022-08-03T00:57:51.416Z,15.97
2022-08-03T00:58:50.404Z,15.97
2022-08-03T00:59:50.396Z,15.97
2022-08-03T01:00:50.442Z,15.98
2022-08-03T01:01:50.556Z,15.94
2022-08-03T01:02:50.377Z,15.95
2022-08-03T01:03:50.393Z,15.98
2022-08-03T01:04:50.380Z,15.87
2022-08-03T01:05:50.357Z,15.87
2022-08-03T01:06:50.388Z,15.91
2022-08-03T01:07:50.354Z,15.88
2022-08-03T01:08:50.328Z,15.76
2022-08-03T01:09:50.313Z,15.79
2022-08-03T01:10:50.328Z,15.87
2022-08-03T01:11:59.907Z,15.77
2022-08-03T01:12:51.285Z,15.94
2022-08-03T01:14:01.391Z,15.87
2022-08-03T01:14:51.277Z,15.83
2022-08-03T01:15:50.267Z,15.85
2022-08-03T01:16:50.281Z,15.82
2022-08-03T01:17:50.245Z,15.75
2022-08-03T01:18:50.239Z,15.76
2022-08-03T01:19:50.229Z,15.75
2022-08-03T01:20:50.220Z,15.69
2022-08-03T01:21:50.249Z,15.72
2022-08-03T01:22:50.209Z,15.70
2022-08-03T01:23:50.217Z,15.65
2022-08-03T01:24:50.205Z,15.62
2022-08-03T01:25:54.189Z,15.68
2022-08-03T01:26:50.171Z,15.57
2022-08-03T01:28:05.500Z,15.65
2022-08-03T01:28:50.150Z,15.52
2022-08-03T01:29:50.156Z,15.61
2022-08-03T01:30:50.173Z,15.68
2022-08-03T01:32:58.669Z,15.65
2022-08-03T01:32:59.599Z,15.62
2022-08-03T01:33:51.112Z,15.65
2022-08-03T01:34:50.103Z,15.64
2022-08-03T01:35:50.097Z,15.46
2022-08-03T01:36:50.129Z,15.50
2022-08-03T01:37:50.082Z,15.52
2022-08-03T01:38:50.328Z,15.61
2022-08-03T01:39:50.065Z,15.50
2022-08-03T01:40:50.056Z,15.52
2022-08-03T01:41:50.076Z,15.48
2022-08-03T01:42:50.037Z,15.46
2022-08-03T01:44:18.113Z,15.40
2022-08-03T01:44:51.018Z,15.44
2022-08-03T01:45:50.008Z,15.44
2022-08-03T01:46:50.028Z,15.54
2022-08-03T01:47:49.998Z,15.46
2022-08-03T01:48:49.988Z,15.42
2022-08-03T01:49:50.037Z,15.55
2022-08-03T01:50:49.966Z,15.54
2022-08-03T01:52:03.162Z,15.51
2022-08-03T01:52:50.952Z,15.46
2022-08-03T01:53:49.938Z,15.44
2022-08-03T01:54:49.932Z,15.44
2022-08-03T01:55:49.931Z,15.44
2022-08-03T01:56:49.960Z,15.40
2022-08-03T01:58:06.108Z,15.33
2022-08-03T01:58:50.911Z,15.42
2022-08-03T01:59:49.893Z,15.27
2022-08-03T02:00:49.922Z,15.33
2022-08-03T02:02:28.326Z,15.24
2022-08-03T02:02:50.898Z,15.37
2022-08-03T02:04:00.845Z,15.35
2022-08-03T02:04:50.849Z,15.35
2022-08-03T02:05:57.195Z,15.33
2022-08-03T02:07:02.039Z,15.36
2022-08-03T02:07:50.825Z,15.30
2022-08-03T02:08:49.833Z,15.32
2022-08-03T02:09:49.805Z,15.28
2022-08-03T02:10:49.794Z,15.33
2022-08-03T02:11:49.820Z,15.24
2022-08-03T02:12:51.226Z,15.28
2022-08-03T02:13:50.779Z,15.32
2022-08-03T02:14:49.767Z,15.18
2022-08-03T02:15:49.777Z,15.18
2022-08-03T02:16:49.778Z,15.12
2022-08-03T02:17:49.740Z,15.14
2022-08-03T02:18:49.729Z,15.22
2022-08-03T02:19:49.720Z,15.21
2022-08-03T02:20:49.715Z,15.14
2022-08-03T02:21:57.448Z,15.03
2022-08-03T02:22:50.697Z,14.97
2022-08-03T02:23:49.692Z,14.96
2022-08-03T02:24:51.242Z,14.89
2022-08-03T02:25:49.658Z,14.99
2022-08-03T02:26:50.693Z,14.91
2022-08-03T02:27:49.669Z,14.95
2022-08-03T02:28:49.649Z,14.93
2022-08-03T02:29:49.639Z,14.93
2022-08-03T02:30:51.829Z,14.93
2022-08-03T02:31:49.656Z,15.00
2022-08-03T02:32:49.622Z,14.88
2022-08-03T02:33:49.610Z,14.91
2022-08-03T02:34:49.597Z,14.95
2022-08-03T02:35:49.592Z,14.96
2022-08-03T02:36:49.618Z,15.00
2022-08-03T02:37:50.047Z,14.89
2022-08-03T02:38:49.562Z,14.95
2022-08-03T02:39:49.561Z,14.96
2022-08-03T02:40:49.551Z,15.04
2022-08-03T02:41:49.581Z,14.91
2022-08-03T02:42:49.556Z,14.91
2022-08-03T02:44:07.180Z,14.97
2022-08-03T02:44:50.525Z,14.89
2022-08-03T02:45:49.503Z,14.95
2022-08-03T02:46:49.524Z,14.89
2022-08-03T02:47:54.388Z,14.95
2022-08-03T02:48:50.485Z,14.85
2022-08-03T02:49:51.525Z,14.89
2022-08-03T02:50:49.463Z,14.81
2022-08-03T02:51:49.481Z,14.87
2022-08-03T02:52:49.446Z,14.85
2022-08-03T02:53:49.436Z,14.84
2022-08-03T02:54:49.428Z,14.91
2022-08-03T02:55:49.418Z,14.79
2022-08-03T02:56:49.437Z,14.78
2022-08-03T02:57:49.402Z,14.87
2022-08-03T02:58:49.392Z,14.78
2022-08-03T02:59:49.379Z,14.84
2022-08-03T03:00:49.476Z,14.81
2022-08-03T03:01:49.396Z,14.73
2022-08-03T03:02:49.357Z,14.79
2022-08-03T03:03:49.353Z,14.68
2022-08-03T03:05:50.884Z,14.79
2022-08-03T03:05:54.775Z,14.70
2022-08-03T03:06:50.366Z,14.73
2022-08-03T03:07:52.972Z,14.74
2022-08-03T03:08:49.309Z,14.81
2022-08-03T03:09:49.302Z,14.63
2022-08-03T03:10:49.299Z,14.69
2022-08-03T03:11:50.304Z,14.69
2022-08-03T03:12:49.272Z,14.59
2022-08-03T03:13:49.265Z,14.58
2022-08-03T03:14:49.268Z,14.66
2022-08-03T03:15:49.246Z,14.73
2022-08-03T03:16:50.612Z,14.61
2022-08-03T03:17:49.228Z,14.63
2022-08-03T03:18:49.217Z,14.70
2022-08-03T03:19:49.212Z,14.70
2022-08-03T03:20:49.212Z,14.61
2022-08-03T03:21:49.228Z,14.68
2022-08-03T03:22:49.196Z,14.66
2022-08-03T03:23:49.178Z,14.68
2022-08-03T03:24:49.169Z,14.56
2022-08-03T03:25:49.172Z,14.66
2022-08-03T03:26:49.185Z,14.66
2022-08-03T03:27:50.806Z,14.65
2022-08-03T03:28:49.136Z,14.65
2022-08-03T03:29:49.229Z,14.55
2022-08-03T03:30:52.715Z,14.56
2022-08-03T03:31:50.140Z,14.55
2022-08-03T03:32:49.099Z,14.59
2022-08-03T03:33:49.091Z,14.47
2022-08-03T03:34:49.079Z,14.55
2022-08-03T03:35:49.075Z,14.53
2022-08-03T03:36:49.094Z,14.58
2022-08-03T03:37:49.060Z,14.59
2022-08-03T03:38:49.055Z,14.40
2022-08-03T03:39:49.044Z,14.50
2022-08-03T03:40:49.034Z,14.56
2022-08-03T03:41:49.057Z,14.53
2022-08-03T03:42:49.023Z,14.50
2022-08-03T03:44:31.539Z,14.43
2022-08-03T03:44:49.001Z,14.48
2022-08-03T03:45:48.996Z,14.55
2022-08-03T03:46:49.010Z,14.40
2022-08-03T03:47:48.977Z,14.51
2022-08-03T03:48:48.965Z,14.48
2022-08-03T03:49:48.958Z,14.45
2022-08-03T03:50:48.985Z,14.41
2022-08-03T03:51:48.994Z,14.43
2022-08-03T03:52:48.940Z,14.45
2022-08-03T03:53:48.947Z,14.51
2022-08-03T03:54:48.913Z,14.41
2022-08-03T03:55:59.627Z,14.47
2022-08-03T03:56:49.930Z,14.50
2022-08-03T03:57:48.895Z,14.53
2022-08-03T03:58:48.892Z,14.59
2022-08-03T03:59:48.871Z,14.65
2022-08-03T04:00:48.875Z,14.51
2022-08-03T04:01:48.885Z,14.50
2022-08-03T04:02:49.848Z,14.48
2022-08-03T04:03:48.840Z,14.45
2022-08-03T04:04:48.833Z,14.45
2022-08-03T04:05:48.816Z,14.44
2022-08-03T04:06:48.844Z,14.44
2022-08-03T04:07:48.810Z,14.43
2022-08-03T04:08:49.377Z,14.45
2022-08-03T04:09:48.785Z,14.47
2022-08-03T04:10:48.791Z,14.47
2022-08-03T04:11:48.828Z,14.43
2022-08-03T04:12:50.615Z,14.61
2022-08-03T04:13:48.760Z,14.53
2022-08-03T04:14:48.750Z,14.58
2022-08-03T04:15:48.741Z,14.59
2022-08-03T04:16:48.759Z,14.56
2022-08-03T04:17:48.707Z,14.62
2022-08-03T04:18:49.709Z,14.66
2022-08-03T04:19:48.704Z,14.66
2022-08-03T04:20:48.701Z,14.65
2022-08-03T04:21:48.745Z,14.66
2022-08-03T04:22:48.688Z,14.73
2022-08-03T04:23:48.686Z,14.74
2022-08-03T04:24:48.665Z,14.79
2022-08-03T04:25:48.669Z,14.91
2022-08-03T04:26:52.599Z,14.97
2022-08-03T04:28:08.045Z,15.00
2022-08-03T04:28:49.629Z,15.04
2022-08-03T04:29:48.852Z,14.95
2022-08-03T04:30:48.627Z,15.12
2022-08-03T04:31:48.611Z,15.04
2022-08-03T04:32:48.664Z,15.25
2022-08-03T04:33:48.623Z,15.32
2022-08-03T04:34:48.585Z,15.61
2022-08-03T04:36:01.359Z,15.95
2022-08-03T04:36:49.583Z,16.10
2022-08-03T04:37:48.595Z,16.32
2022-08-03T04:38:48.562Z,16.34
2022-08-03T04:39:48.545Z,16.34
2022-08-03T04:40:48.549Z,16.61
2022-08-03T04:42:06.955Z,17.19
2022-08-03T04:42:49.550Z,17.48
2022-08-03T04:43:48.518Z,17.49
2022-08-03T04:44:48.529Z,17.78
2022-08-03T04:45:48.577Z,18.03
2022-08-03T04:46:50.520Z,18.30
2022-08-03T04:47:48.512Z,18.28
2022-08-03T04:48:48.475Z,18.03
2022-08-03T04:49:48.465Z,17.95
2022-08-03T04:50:48.461Z,18.07
2022-08-03T04:51:48.445Z,17.97
2022-08-03T04:52:48.469Z,18.15
2022-08-03T04:53:48.432Z,18.38
2022-08-03T04:54:50.615Z,18.53
2022-08-03T04:55:48.419Z,18.70
2022-08-03T04:56:48.399Z,18.70
2022-08-03T04:57:57.468Z,18.81
2022-08-03T04:58:49.390Z,19.00
2022-08-03T04:59:48.380Z,19.33
2022-08-03T05:00:48.386Z,19.37
2022-08-03T05:01:48.434Z,19.24
2022-08-03T05:02:48.388Z,19.24
2022-08-03T05:03:48.346Z,19.36
2022-08-03T05:04:48.339Z,19.36
2022-08-03T05:05:50.101Z,19.60
2022-08-03T05:06:54.118Z,19.91
2022-08-03T05:07:49.342Z,19.84
2022-08-03T05:08:50.775Z,19.99
2022-08-03T05:09:50.679Z,20.07
2022-08-03T05:10:48.296Z,19.99
2022-08-03T05:11:48.278Z,19.91
2022-08-03T05:12:48.320Z,19.99
2022-08-03T05:13:48.262Z,20.03
2022-08-03T05:14:48.259Z,20.06
2022-08-03T05:15:48.243Z,20.15
2022-08-03T05:16:48.238Z,20.37
2022-08-03T05:17:48.270Z,20.60
2022-08-03T05:18:48.221Z,20.82
2022-08-03T05:19:48.212Z,20.67
2022-08-03T05:20:48.206Z,20.55
2022-08-03T05:21:52.548Z,20.63
2022-08-03T05:22:48.217Z,20.26
2022-08-03T05:23:48.196Z,20.40
2022-08-03T05:24:48.202Z,20.77
2022-08-03T05:25:50.089Z,20.85
2022-08-03T05:26:58.980Z,20.90
2022-08-03T05:27:49.194Z,20.90
2022-08-03T05:28:51.263Z,20.69
2022-08-03T05:29:48.141Z,20.96
2022-08-03T05:30:48.118Z,21.14
2022-08-03T05:31:48.147Z,21.14
2022-08-03T05:32:48.134Z,21.20
2022-08-03T05:33:48.093Z,21.37
2022-08-03T05:34:48.094Z,21.45
2022-08-03T05:36:00.608Z,21.42
2022-08-03T05:36:49.101Z,21.54
2022-08-03T05:37:54.872Z,21.65
2022-08-03T05:38:49.057Z,21.59
2022-08-03T05:39:48.059Z,21.51
2022-08-03T05:40:57.341Z,21.85
2022-08-03T05:41:49.036Z,21.95
2022-08-03T05:42:48.057Z,21.77
2022-08-03T05:43:48.030Z,22.19
2022-08-03T05:44:48.003Z,22.23
2022-08-03T05:45:48.002Z,22.07
2022-08-03T05:46:48.986Z,22.22
2022-08-03T05:47:47.982Z,22.40
2022-08-03T05:48:48.002Z,22.72
2022-08-03T05:49:47.970Z,22.85
2022-08-03T05:50:47.954Z,22.66
2022-08-03T05:51:47.946Z,22.75
2022-08-03T05:52:48.934Z,22.65
2022-08-03T05:53:47.963Z,22.65
2022-08-03T05:54:56.269Z,23.56
2022-08-03T05:55:52.653Z,23.53
2022-08-03T05:56:48.903Z,23.52
2022-08-03T05:57:47.911Z,23.48
2022-08-03T05:58:48.096Z,23.68
2022-08-03T05:59:57.710Z,24.13
2022-08-03T06:00:48.865Z,24.23
2022-08-03T06:01:47.957Z,23.84
2022-08-03T06:02:47.918Z,23.77
2022-08-03T06:03:47.887Z,23.84
2022-08-03T06:04:47.832Z,24.10
2022-08-03T06:05:58.322Z,24.10
2022-08-03T06:06:48.829Z,24.66
2022-08-03T06:07:47.806Z,24.82
2022-08-03T06:08:47.822Z,24.89
2022-08-03T06:10:36.451Z,24.98
2022-08-03T06:10:48.772Z,25.04
2022-08-03T06:11:48.779Z,25.07
2022-08-03T06:12:47.770Z,24.93
2022-08-03T06:13:47.793Z,24.93
2022-08-03T06:14:47.758Z,25.20
2022-08-03T06:15:47.748Z,25.25
2022-08-03T06:16:47.735Z,25.07
2022-08-03T06:17:47.735Z,24.83
2022-08-03T06:18:47.761Z,24.95
2022-08-03T06:19:47.719Z,24.62
2022-08-03T06:20:49.298Z,24.35
2022-08-03T06:21:47.700Z,24.69
2022-08-03T06:22:47.710Z,25.29
2022-08-03T06:23:54.157Z,25.38
2022-08-03T06:25:22.093Z,25.32
2022-08-03T06:25:47.666Z,25.67
2022-08-03T06:26:47.653Z,25.60
2022-08-03T06:27:47.640Z,25.29
2022-08-03T06:28:51.751Z,25.45
2022-08-03T06:29:48.836Z,25.33
2022-08-03T06:30:47.784Z,25.41
2022-08-03T06:31:47.624Z,25.26
2022-08-03T06:32:52.007Z,25.22
2022-08-03T06:34:30.060Z,25.33
2022-08-03T06:34:48.593Z,25.50
2022-08-03T06:35:47.583Z,25.82
2022-08-03T06:36:47.567Z,26.07
2022-08-03T06:37:48.573Z,26.04
2022-08-03T06:38:47.593Z,26.16
2022-08-03T06:39:47.547Z,26.74
2022-08-03T06:40:47.539Z,27.32
2022-08-03T06:41:47.535Z,27.44
2022-08-03T06:42:47.524Z,27.37
2022-08-03T06:44:03.216Z,27.41
2022-08-03T06:44:48.523Z,27.62
2022-08-03T06:45:47.698Z,27.90
2022-08-03T06:46:47.499Z,27.83
2022-08-03T06:47:47.482Z,27.33
2022-08-03T06:48:48.514Z,26.67
2022-08-03T06:50:12.263Z,26.45
2022-08-03T06:50:48.464Z,26.67
2022-08-03T06:52:05.369Z,26.78
2022-08-03T06:52:48.448Z,26.85
2022-08-03T06:53:47.467Z,26.86
2022-08-03T06:54:47.431Z,26.93
2022-08-03T06:55:51.127Z,26.86
2022-08-03T06:56:49.405Z,27.34
2022-08-03T06:57:48.406Z,27.83
2022-08-03T06:58:47.429Z,27.86
2022-08-03T07:00:10.409Z,27.93
2022-08-03T07:00:48.389Z,27.99
2022-08-03T07:01:47.447Z,28.48
2022-08-03T07:02:47.377Z,28.76
2022-08-03T07:03:52.389Z,29.17
2022-08-03T07:04:48.351Z,29.26
2022-08-03T07:05:47.394Z,29.05
2022-08-03T07:07:02.279Z,29.13
2022-08-03T07:08:02.791Z,29.14
2022-08-03T07:08:50.562Z,28.94
2022-08-03T07:09:57.100Z,28.66
2022-08-03T07:10:48.304Z,28.73
2022-08-03T07:11:47.300Z,29.10
2022-08-03T07:12:52.758Z,29.11
2022-08-03T07:13:48.318Z,29.28
2022-08-03T07:14:47.279Z,29.85
2022-08-03T07:15:55.293Z,30.24
2022-08-03T07:16:48.264Z,29.87
2022-08-03T07:17:47.251Z,29.65
2022-08-03T07:18:47.280Z,30.20
2022-08-03T07:19:47.247Z,30.29
2022-08-03T07:20:47.241Z,30.40
2022-08-03T07:21:47.231Z,30.36
2022-08-03T07:22:47.223Z,30.31
2022-08-03T07:23:47.260Z,30.63
2022-08-03T07:24:47.210Z,30.78
2022-08-03T07:25:47.200Z,30.69
2022-08-03T07:26:47.184Z,30.66
2022-08-03T07:27:51.637Z,31.07
2022-08-03T07:28:48.197Z,31.58
2022-08-03T07:29:47.181Z,31.31
2022-08-03T07:30:47.156Z,31.15
2022-08-03T07:31:47.143Z,31.26
2022-08-03T07:32:50.482Z,31.63
2022-08-03T07:33:47.156Z,31.97
2022-08-03T07:34:47.121Z,32.15
2022-08-03T07:35:47.113Z,32.28
2022-08-03T07:36:47.142Z,32.25
2022-08-03T07:37:54.394Z,32.12
2022-08-03T07:38:48.114Z,32.13
2022-08-03T07:39:47.082Z,32.20
2022-08-03T07:40:47.132Z,32.20
2022-08-03T07:41:47.064Z,32.43
2022-08-03T07:42:47.055Z,32.19
2022-08-03T07:43:47.090Z,31.98
2022-08-03T07:44:47.047Z,31.80
2022-08-03T07:45:47.033Z,31.97
2022-08-03T07:46:47.036Z,32.28
2022-08-03T07:47:53.926Z,32.61
2022-08-03T07:48:48.041Z,32.64
2022-08-03T07:49:47.003Z,33.09
2022-08-03T07:50:46.998Z,32.90
2022-08-03T07:51:47.005Z,32.96
2022-08-03T07:52:46.986Z,33.12
2022-08-03T07:53:47.853Z,33.23
2022-08-03T07:54:46.978Z,33.21
2022-08-03T07:55:46.973Z,32.89
2022-08-03T07:56:46.952Z,33.34
2022-08-03T07:57:46.942Z,33.71
2022-08-03T07:58:46.969Z,34.15
2022-08-03T08:00:01.420Z,34.29
2022-08-03T08:00:47.999Z,34.42
2022-08-03T08:01:46.975Z,34.59
2022-08-03T08:02:46.918Z,34.17
2022-08-03T08:03:52.672Z,33.62
2022-08-03T08:04:47.896Z,33.71
2022-08-03T08:05:46.900Z,33.96
2022-08-03T08:06:46.885Z,34.00
2022-08-03T08:07:51.102Z,33.95
2022-08-03T08:08:47.889Z,33.39
2022-08-03T08:09:46.856Z,33.81
2022-08-03T08:10:58.177Z,34.24
2022-08-03T08:11:47.842Z,34.51
2022-08-03T08:12:46.833Z,34.70
2022-08-03T08:13:46.830Z,35.05
2022-08-03T08:14:46.865Z,34.94
2022-08-03T08:15:46.813Z,34.97
2022-08-03T08:16:46.803Z,35.27
2022-08-03T08:17:46.794Z,35.36
2022-08-03T08:18:46.794Z,35.33
2022-08-03T08:19:53.169Z,35.39
2022-08-03T08:20:47.780Z,35.49
2022-08-03T08:21:53.484Z,35.99
2022-08-03T08:22:47.753Z,36.22
2022-08-03T08:23:53.745Z,36.11
2022-08-03T08:24:48.776Z,35.79
2022-08-03T08:25:46.737Z,35.83
2022-08-03T08:26:46.729Z,35.90
2022-08-03T08:28:29.975Z,35.77
2022-08-03T08:28:47.704Z,35.86
2022-08-03T08:29:54.517Z,35.98
2022-08-03T08:30:47.702Z,35.21
2022-08-03T08:31:46.718Z,35.26
2022-08-03T08:32:46.692Z,35.39
2022-08-03T08:34:04.115Z,35.89
2022-08-03T08:34:48.714Z,35.68
2022-08-03T08:35:46.666Z,35.58
2022-08-03T08:36:46.656Z,35.79
2022-08-03T08:37:50.919Z,35.67
2022-08-03T08:38:46.647Z,36.11
2022-08-03T08:39:46.677Z,36.90
2022-08-03T08:40:46.657Z,37.08
2022-08-03T08:41:49.603Z,37.19
2022-08-03T08:42:58.098Z,37.26
2022-08-03T08:43:48.608Z,37.79
2022-08-03T08:44:46.639Z,38.05
2022-08-03T08:45:46.598Z,38.37
2022-08-03T08:46:46.589Z,38.08
2022-08-03T08:47:50.811Z,38.44
2022-08-03T08:48:47.572Z,38.52
2022-08-03T08:50:08.492Z,38.40
2022-08-03T08:50:48.561Z,38.46
2022-08-03T08:51:59.657Z,38.20
2022-08-03T08:52:47.554Z,38.12
2022-08-03T08:53:46.544Z,37.77
2022-08-03T08:54:46.559Z,37.79
2022-08-03T08:55:58.557Z,38.40
2022-08-03T08:56:47.515Z,38.58
2022-08-03T08:57:46.508Z,38.28
2022-08-03T08:58:47.580Z,38.09
2022-08-03T08:59:48.288Z,38.31
2022-08-03T09:00:46.533Z,38.54
2022-08-03T09:01:46.486Z,38.76
2022-08-03T09:02:46.485Z,38.78
2022-08-03T09:03:46.474Z,38.54
2022-08-03T09:04:46.503Z,38.25
2022-08-03T09:05:55.813Z,38.17
2022-08-03T09:07:19.321Z,38.44
2022-08-03T09:07:48.443Z,38.66
2022-08-03T09:08:46.437Z,38.28
2022-08-03T09:10:10.983Z,38.31
2022-08-03T09:10:47.423Z,38.61
2022-08-03T09:12:00.885Z,38.59
2022-08-03T09:12:47.410Z,38.42
2022-08-03T09:13:46.412Z,38.25
2022-08-03T09:15:07.363Z,37.98
2022-08-03T09:15:57.199Z,38.40
2022-08-03T09:16:47.387Z,38.81
2022-08-03T09:17:50.649Z,38.03
2022-08-03T09:18:47.374Z,37.65
2022-08-03T09:20:03.712Z,37.53
2022-08-03T09:20:47.388Z,37.98
2022-08-03T09:21:46.347Z,38.15
2022-08-03T09:22:46.339Z,37.65
2022-08-03T09:24:01.619Z,38.02
2022-08-03T09:25:03.192Z,38.54
2022-08-03T09:25:48.321Z,38.71
2022-08-03T09:26:46.319Z,39.13
2022-08-03T09:27:46.311Z,39.37
2022-08-03T09:29:01.165Z,39.59
2022-08-03T09:29:48.329Z,39.66
2022-08-03T09:30:46.291Z,39.97
2022-08-03T09:31:46.554Z,39.90
2022-08-03T09:32:46.276Z,39.72
2022-08-03T09:33:46.275Z,39.72
2022-08-03T09:34:46.270Z,39.47
2022-08-03T09:35:54.820Z,39.53
2022-08-03T09:36:48.273Z,39.87
2022-08-03T09:38:12.609Z,39.87
2022-08-03T09:38:47.254Z,40.00
2022-08-03T09:39:46.235Z,39.62
2022-08-03T09:40:46.312Z,39.13
2022-08-03T09:41:46.220Z,39.60
2022-08-03T09:42:46.213Z,39.75
2022-08-03T09:43:46.218Z,40.06
2022-08-03T09:44:46.215Z,40.13
2022-08-03T09:45:46.222Z,40.21
2022-08-03T09:46:46.186Z,40.42
2022-08-03T09:47:46.192Z,40.50
2022-08-03T09:48:46.176Z,40.02
2022-08-03T09:49:46.183Z,40.09
2022-08-03T09:50:58.706Z,39.87
2022-08-03T09:52:37.849Z,39.78
2022-08-03T09:52:49.881Z,39.49
2022-08-03T09:53:59.729Z,38.76
2022-08-03T09:54:47.140Z,38.66
2022-08-03T09:56:34.217Z,39.01
2022-08-03T09:56:47.124Z,39.13
2022-08-03T09:57:46.128Z,39.30
2022-08-03T09:58:46.124Z,39.43
2022-08-03T09:59:46.114Z,40.03
2022-08-03T10:00:46.210Z,40.08
2022-08-03T10:01:46.150Z,39.84
2022-08-03T10:02:46.086Z,39.19
2022-08-03T10:04:03.481Z,39.54
2022-08-03T10:04:47.080Z,39.76
2022-08-03T10:05:46.101Z,40.03
2022-08-03T10:06:46.066Z,39.76
2022-08-03T10:07:46.378Z,39.87
2022-08-03T10:08:46.047Z,39.66
2022-08-03T10:09:46.047Z,39.93
2022-08-03T10:10:46.065Z,39.87
2022-08-03T10:11:46.029Z,40.21
2022-08-03T10:12:46.022Z,40.25
2022-08-03T10:13:46.017Z,40.03
2022-08-03T10:14:46.019Z,39.95
2022-08-03T10:16:23.069Z,40.42
2022-08-03T10:16:47.007Z,40.20
2022-08-03T10:17:46.001Z,39.93
2022-08-03T10:18:45.977Z,39.83
2022-08-03T10:19:45.979Z,39.97
2022-08-03T10:20:46.000Z,40.45
2022-08-03T10:21:45.972Z,40.57
2022-08-03T10:22:45.961Z,40.82
2022-08-03T10:23:45.956Z,41.04
2022-08-03T10:24:45.951Z,41.34
2022-08-03T10:25:45.976Z,41.28
2022-08-03T10:26:49.892Z,41.44
2022-08-03T10:27:45.934Z,41.07
2022-08-03T10:28:45.923Z,41.32
2022-08-03T10:30:00.926Z,41.13
2022-08-03T10:31:17.845Z,41.30
2022-08-03T10:31:57.375Z,41.28
2022-08-03T10:32:46.901Z,40.86
2022-08-03T10:33:51.912Z,40.06
2022-08-03T10:34:46.890Z,39.94
2022-08-03T10:35:45.912Z,40.36
2022-08-03T10:36:45.876Z,40.93
2022-08-03T10:37:56.655Z,41.17
2022-08-03T10:38:46.870Z,41.41
2022-08-03T10:39:45.861Z,40.93
2022-08-03T10:40:49.411Z,39.80
2022-08-03T10:41:46.844Z,39.57
2022-08-03T10:42:45.845Z,39.93
2022-08-03T10:43:45.836Z,40.36
2022-08-03T10:44:45.830Z,40.63
2022-08-03T10:45:45.866Z,40.20
2022-08-03T10:46:46.815Z,39.93
2022-08-03T10:47:45.812Z,39.43
2022-08-03T10:48:45.804Z,39.27
2022-08-03T10:49:45.851Z,38.58
2022-08-03T10:50:45.823Z,38.31
2022-08-03T10:51:45.803Z,37.96
2022-08-03T10:52:49.157Z,38.36
2022-08-03T10:53:54.884Z,38.78
2022-08-03T10:54:46.768Z,38.81
2022-08-03T10:55:45.763Z,38.83
2022-08-03T10:56:48.686Z,39.37
2022-08-03T10:57:45.833Z,39.68
2022-08-03T10:58:57.250Z,39.20
2022-08-03T10:59:46.783Z,38.93
2022-08-03T11:00:45.754Z,39.22
2022-08-03T11:01:58.890Z,39.65
2022-08-03T11:02:46.711Z,40.21
2022-08-03T11:03:45.706Z,40.08
2022-08-03T11:04:45.709Z,39.94
2022-08-03T11:05:45.699Z,39.94
2022-08-03T11:06:45.721Z,40.44
2022-08-03T11:07:45.687Z,39.91
2022-08-03T11:08:46.682Z,38.85
2022-08-03T11:09:45.678Z,38.96
2022-08-03T11:10:45.696Z,39.32
2022-08-03T11:11:45.666Z,38.83
2022-08-03T11:12:45.672Z,39.09
2022-08-03T11:13:45.647Z,39.46
2022-08-03T11:14:45.639Z,39.22
2022-08-03T11:15:45.666Z,39.65
2022-08-03T11:16:45.629Z,39.18
2022-08-03T11:17:55.517Z,39.00
2022-08-03T11:18:46.619Z,39.87
2022-08-03T11:19:56.948Z,38.92
2022-08-03T11:20:46.634Z,38.49
2022-08-03T11:21:45.599Z,38.05
2022-08-03T11:22:45.592Z,37.39
2022-08-03T11:24:02.889Z,38.18
2022-08-03T11:24:46.586Z,38.43
2022-08-03T11:25:53.758Z,39.01
2022-08-03T11:26:46.572Z,39.56
2022-08-03T11:27:45.565Z,40.08
2022-08-03T11:28:45.561Z,40.17
2022-08-03T11:29:45.565Z,39.97
2022-08-03T11:30:45.582Z,39.81
2022-08-03T11:31:50.607Z,39.93
2022-08-03T11:32:48.681Z,40.12
2022-08-03T11:33:45.527Z,40.47
2022-08-03T11:34:45.521Z,40.56
2022-08-03T11:35:45.553Z,40.24
2022-08-03T11:36:45.507Z,40.44
2022-08-03T11:38:03.058Z,40.03
2022-08-03T11:38:46.497Z,40.10
2022-08-03T11:39:45.484Z,41.00
2022-08-03T11:40:45.522Z,41.17
2022-08-03T11:41:45.545Z,40.93
2022-08-03T11:42:45.468Z,41.34
2022-08-03T11:43:45.482Z,41.37
2022-08-03T11:44:46.865Z,41.49
2022-08-03T11:45:45.452Z,41.35
2022-08-03T11:46:45.468Z,41.16
2022-08-03T11:47:51.106Z,39.50
2022-08-03T11:48:46.428Z,39.00
2022-08-03T11:49:45.421Z,39.40
2022-08-03T11:50:45.423Z,39.45
2022-08-03T11:51:45.446Z,40.03
2022-08-03T11:52:45.404Z,40.40
2022-08-03T11:53:45.398Z,41.04
2022-08-03T11:54:45.404Z,41.15
2022-08-03T11:55:45.389Z,40.72
2022-08-03T11:56:45.438Z,40.38
2022-08-03T11:59:01.932Z,39.66
2022-08-03T11:59:10.816Z,39.91
2022-08-03T11:59:46.367Z,39.30
2022-08-03T12:00:45.357Z,39.97
2022-08-03T12:01:45.392Z,39.75
2022-08-03T12:02:45.358Z,39.76
2022-08-03T12:03:46.040Z,39.62
2022-08-03T12:04:45.331Z,39.13
2022-08-03T12:05:51.226Z,38.63
2022-08-03T12:06:47.410Z,38.36
2022-08-03T12:08:04.209Z,38.51
2022-08-03T12:08:46.303Z,38.44
2022-08-03T12:09:45.298Z,38.00
2022-08-03T12:10:45.327Z,37.98
2022-08-03T12:11:59.632Z,37.94
2022-08-03T12:12:46.821Z,37.59
2022-08-03T12:14:45.382Z,37.80
2022-08-03T12:14:51.749Z,38.34
2022-08-03T12:15:47.295Z,38.81
2022-08-03T12:16:45.262Z,38.88
2022-08-03T12:17:45.250Z,38.98
2022-08-03T12:18:45.241Z,38.28
2022-08-03T12:19:45.238Z,37.98
2022-08-03T12:20:45.267Z,37.88
2022-08-03T12:21:45.230Z,37.24
2022-08-03T12:22:46.214Z,36.83
2022-08-03T12:23:45.211Z,36.70
2022-08-03T12:24:46.763Z,37.14
2022-08-03T12:25:46.242Z,37.42
2022-08-03T12:26:45.189Z,37.71
2022-08-03T12:27:46.188Z,37.88
2022-08-03T12:28:49.522Z,38.14
2022-08-03T12:29:57.054Z,38.12
2022-08-03T12:30:46.507Z,38.17
2022-08-03T12:31:45.165Z,38.36
2022-08-03T12:32:45.153Z,38.93
2022-08-03T12:33:45.145Z,38.66
2022-08-03T12:34:47.232Z,39.09
2022-08-03T12:35:52.352Z,39.38
2022-08-03T12:36:46.125Z,39.54
2022-08-03T12:37:45.111Z,39.34
2022-08-03T12:38:45.118Z,39.41
2022-08-03T12:40:02.107Z,38.84
2022-08-03T12:40:46.129Z,38.70
2022-08-03T12:41:45.099Z,38.28
2022-08-03T12:42:45.089Z,37.84
2022-08-03T12:43:45.086Z,37.29
2022-08-03T12:44:45.076Z,37.53
2022-08-03T12:45:45.102Z,37.96
2022-08-03T12:46:47.956Z,37.54
2022-08-03T12:47:46.060Z,37.04
2022-08-03T12:48:45.057Z,37.00
2022-08-03T12:49:45.042Z,36.58
2022-08-03T12:50:45.069Z,36.66
2022-08-03T12:51:45.034Z,36.93
2022-08-03T12:52:45.037Z,37.22